sensor_id;sensor_type;location;lat;lon;timestamp;temperature;humidity
14585;DHT22;7379;51.506;11.876;2024-03-23T00:54:35;11.40;80.60
14585;DHT22;7379;51.506;11.876;2024-03-23T00:57:01;11.40;80.50
14585;DHT22;7379;51.506;11.876;2024-03-23T00:59:27;11.40;80.50
14585;DHT22;7379;51.506;11.876;2024-03-23T01:01:54;11.40;80.50
14585;DHT22;7379;51.506;11.876;2024-03-23T01:04:20;11.40;80.60
14585;DHT22;7379;51.506;11.876;2024-03-23T01:06:47;11.40;80.50
14585;DHT22;7379;51.506;11.876;2024-03-23T01:09:12;11.40;80.50
14585;DHT22;7379;51.506;11.876;2024-03-23T01:11:40;11.40;80.50
14585;DHT22;7379;51.506;11.876;2024-03-23T01:14:06;11.40;81.30
14585;DHT22;7379;51.506;11.876;2024-03-23T01:16:33;11.40;80.50
14585;DHT22;7379;51.506;11.876;2024-03-23T01:18:59;11.40;80.50
14585;DHT22;7379;51.506;11.876;2024-03-23T01:21:25;11.30;81.10
14585;DHT22;7379;51.506;11.876;2024-03-23T01:23:51;11.30;80.30
14585;DHT22;7379;51.506;11.876;2024-03-23T01:26:17;11.30;80.30
14585;DHT22;7379;51.506;11.876;2024-03-23T01:28:44;11.30;80.30
14585;DHT22;7379;51.506;11.876;2024-03-23T01:31:11;11.30;80.30
14585;DHT22;7379;51.506;11.876;2024-03-23T01:33:37;11.30;80.30
14585;DHT22;7379;51.506;11.876;2024-03-23T01:36:04;11.30;81.10
14585;DHT22;7379;51.506;11.876;2024-03-23T01:38:30;11.30;80.30
14585;DHT22;7379;51.506;11.876;2024-03-23T01:40:57;11.30;80.30
14585;DHT22;7379;51.506;11.876;2024-03-23T01:43:23;11.30;80.30
14585;DHT22;7379;51.506;11.876;2024-03-23T01:45:51;11.30;80.60
14585;DHT22;7379;51.506;11.876;2024-03-23T01:48:19;11.30;80.30
14585;DHT22;7379;51.506;11.876;2024-03-23T01:50:46;11.30;80.30
14585;DHT22;7379;51.506;11.876;2024-03-23T01:53:12;11.30;80.30
14585;DHT22;7379;51.506;11.876;2024-03-23T01:55:42;11.30;80.40
14585;DHT22;7379;51.506;11.876;2024-03-23T01:58:08;11.30;80.40
14585;DHT22;7379;51.506;11.876;2024-03-23T02:00:35;11.30;80.30
14585;DHT22;7379;51.506;11.876;2024-03-23T02:03:02;11.30;80.30
14585;DHT22;7379;51.506;11.876;2024-03-23T02:05:28;11.30;80.40
14585;DHT22;7379;51.506;11.876;2024-03-23T02:07:54;11.30;80.40
14585;DHT22;7379;51.506;11.876;2024-03-23T02:10:21;11.30;80.40
14585;DHT22;7379;51.506;11.876;2024-03-23T02:12:47;11.20;80.30
14585;DHT22;7379;51.506;11.876;2024-03-23T02:15:13;11.20;80.30
14585;DHT22;7379;51.506;11.876;2024-03-23T02:17:39;11.20;80.30
14585;DHT22;7379;51.506;11.876;2024-03-23T02:20:08;11.20;80.30
14585;DHT22;7379;51.506;11.876;2024-03-23T02:22:36;11.20;80.40
14585;DHT22;7379;51.506;11.876;2024-03-23T02:25:05;11.20;80.30
14585;DHT22;7379;51.506;11.876;2024-03-23T02:27:31;11.20;80.30
14585;DHT22;7379;51.506;11.876;2024-03-23T02:29:58;11.20;80.30
14585;DHT22;7379;51.506;11.876;2024-03-23T02:32:24;11.20;80.30
14585;DHT22;7379;51.506;11.876;2024-03-23T02:34:50;11.20;80.30
14585;DHT22;7379;51.506;11.876;2024-03-23T02:37:16;11.20;80.30
14585;DHT22;7379;51.506;11.876;2024-03-23T02:39:42;11.20;80.30
14585;DHT22;7379;51.506;11.876;2024-03-23T02:42:09;11.20;80.30
14585;DHT22;7379;51.506;11.876;2024-03-23T02:44:36;11.20;80.30
14585;DHT22;7379;51.506;11.876;2024-03-23T02:47:02;11.20;80.30
14585;DHT22;7379;51.506;11.876;2024-03-23T02:49:28;11.20;80.30
14585;DHT22;7379;51.506;11.876;2024-03-23T02:51:54;11.20;80.40
14585;DHT22;7379;51.506;11.876;2024-03-23T02:54:21;11.10;80.30
14585;DHT22;7379;51.506;11.876;2024-03-23T02:56:46;11.10;80.30
14585;DHT22;7379;51.506;11.876;2024-03-23T02:59:14;11.10;80.30
14585;DHT22;7379;51.506;11.876;2024-03-23T03:01:40;11.10;80.30
14585;DHT22;7379;51.506;11.876;2024-03-23T03:04:07;11.10;80.30
14585;DHT22;7379;51.506;11.876;2024-03-23T03:06:32;11.10;80.30
14585;DHT22;7379;51.506;11.876;2024-03-23T03:08:59;11.10;80.30
14585;DHT22;7379;51.506;11.876;2024-03-23T03:11:25;11.10;80.30
14585;DHT22;7379;51.506;11.876;2024-03-23T03:13:52;11.10;80.30
14585;DHT22;7379;51.506;11.876;2024-03-23T03:16:19;11.10;80.30
14585;DHT22;7379;51.506;11.876;2024-03-23T03:18:45;11.10;80.30
14585;DHT22;7379;51.506;11.876;2024-03-23T03:21:12;11.10;80.30
14585;DHT22;7379;51.506;11.876;2024-03-23T03:23:39;11.10;80.30
14585;DHT22;7379;51.506;11.876;2024-03-23T03:26:05;11.10;80.30
14585;DHT22;7379;51.506;11.876;2024-03-23T03:28:32;11.10;80.30
14585;DHT22;7379;51.506;11.876;2024-03-23T03:30:58;11.10;80.30
14585;DHT22;7379;51.506;11.876;2024-03-23T03:33:26;11.10;80.30
14585;DHT22;7379;51.506;11.876;2024-03-23T03:35:52;11.10;80.30
14585;DHT22;7379;51.506;11.876;2024-03-23T03:38:18;11.10;80.30
14585;DHT22;7379;51.506;11.876;2024-03-23T03:40:44;11.10;81.10
14585;DHT22;7379;51.506;11.876;2024-03-23T03:43:11;11.10;80.40
14585;DHT22;7379;51.506;11.876;2024-03-23T03:45:37;11.00;80.30
14585;DHT22;7379;51.506;11.876;2024-03-23T03:48:04;11.00;80.30
14585;DHT22;7379;51.506;11.876;2024-03-23T03:50:31;11.00;80.30
14585;DHT22;7379;51.506;11.876;2024-03-23T03:52:57;11.00;80.30
14585;DHT22;7379;51.506;11.876;2024-03-23T03:55:23;11.00;80.30
14585;DHT22;7379;51.506;11.876;2024-03-23T03:57:50;11.00;80.30
14585;DHT22;7379;51.506;11.876;2024-03-23T04:00:16;11.00;80.30
14585;DHT22;7379;51.506;11.876;2024-03-23T04:02:42;11.00;80.30
14585;DHT22;7379;51.506;11.876;2024-03-23T04:05:08;11.00;80.30
14585;DHT22;7379;51.506;11.876;2024-03-23T04:07:36;11.00;80.30
14585;DHT22;7379;51.506;11.876;2024-03-23T04:10:02;11.00;80.30
14585;DHT22;7379;51.506;11.876;2024-03-23T04:12:32;11.00;80.30
14585;DHT22;7379;51.506;11.876;2024-03-23T04:14:58;11.00;80.30
14585;DHT22;7379;51.506;11.876;2024-03-23T04:17:25;11.00;80.30
14585;DHT22;7379;51.506;11.876;2024-03-23T04:19:51;11.00;80.30
14585;DHT22;7379;51.506;11.876;2024-03-23T04:22:19;11.00;80.40
14585;DHT22;7379;51.506;11.876;2024-03-23T04:24:46;11.00;80.40
14585;DHT22;7379;51.506;11.876;2024-03-23T04:27:13;11.00;80.40
14585;DHT22;7379;51.506;11.876;2024-03-23T04:29:39;11.00;80.40
14585;DHT22;7379;51.506;11.876;2024-03-23T04:32:06;11.00;80.40
14585;DHT22;7379;51.506;11.876;2024-03-23T04:34:32;10.90;80.30
14585;DHT22;7379;51.506;11.876;2024-03-23T04:36:59;10.90;80.30
14585;DHT22;7379;51.506;11.876;2024-03-23T04:39:24;11.00;80.40
14585;DHT22;7379;51.506;11.876;2024-03-23T04:41:52;10.90;80.30
14585;DHT22;7379;51.506;11.876;2024-03-23T04:44:19;10.90;80.30
14585;DHT22;7379;51.506;11.876;2024-03-23T04:46:45;11.00;80.40
14585;DHT22;7379;51.506;11.876;2024-03-23T04:49:12;10.90;80.30
14585;DHT22;7379;51.506;11.876;2024-03-23T04:51:39;10.90;80.30
14585;DHT22;7379;51.506;11.876;2024-03-23T04:54:11;10.90;80.30
14585;DHT22;7379;51.506;11.876;2024-03-23T04:56:36;10.90;80.30
14585;DHT22;7379;51.506;11.876;2024-03-23T04:59:04;10.90;80.30
14585;DHT22;7379;51.506;11.876;2024-03-23T05:01:30;10.90;80.30
14585;DHT22;7379;51.506;11.876;2024-03-23T05:03:57;10.90;80.30
14585;DHT22;7379;51.506;11.876;2024-03-23T05:06:23;10.90;80.30
14585;DHT22;7379;51.506;11.876;2024-03-23T05:08:49;10.90;80.30
14585;DHT22;7379;51.506;11.876;2024-03-23T05:11:15;10.90;80.30
14585;DHT22;7379;51.506;11.876;2024-03-23T05:13:42;10.90;80.40
14585;DHT22;7379;51.506;11.876;2024-03-23T05:16:09;10.90;80.40
14585;DHT22;7379;51.506;11.876;2024-03-23T05:18:36;10.90;80.40
14585;DHT22;7379;51.506;11.876;2024-03-23T05:21:02;10.90;80.40
14585;DHT22;7379;51.506;11.876;2024-03-23T05:23:29;10.90;80.40
14585;DHT22;7379;51.506;11.876;2024-03-23T05:25:55;10.90;80.40
14585;DHT22;7379;51.506;11.876;2024-03-23T05:28:21;10.90;80.30
14585;DHT22;7379;51.506;11.876;2024-03-23T05:30:50;10.90;80.40
14585;DHT22;7379;51.506;11.876;2024-03-23T05:33:19;10.80;80.30
14585;DHT22;7379;51.506;11.876;2024-03-23T05:35:45;10.80;80.20
14585;DHT22;7379;51.506;11.876;2024-03-23T05:38:11;10.80;80.20
14585;DHT22;7379;51.506;11.876;2024-03-23T05:40:38;10.80;80.20
14585;DHT22;7379;51.506;11.876;2024-03-23T05:43:05;10.80;80.20
14585;DHT22;7379;51.506;11.876;2024-03-23T05:45:32;10.80;80.10
14585;DHT22;7379;51.506;11.876;2024-03-23T05:47:58;10.80;80.10
14585;DHT22;7379;51.506;11.876;2024-03-23T05:50:26;10.80;80.10
14585;DHT22;7379;51.506;11.876;2024-03-23T05:52:52;10.80;80.10
14585;DHT22;7379;51.506;11.876;2024-03-23T05:55:18;10.80;80.00
14585;DHT22;7379;51.506;11.876;2024-03-23T05:57:44;10.80;80.00
14585;DHT22;7379;51.506;11.876;2024-03-23T06:00:11;10.80;80.00
14585;DHT22;7379;51.506;11.876;2024-03-23T06:02:41;10.70;79.90
14585;DHT22;7379;51.506;11.876;2024-03-23T06:05:10;10.70;79.90
14585;DHT22;7379;51.506;11.876;2024-03-23T06:07:37;10.70;79.80
14585;DHT22;7379;51.506;11.876;2024-03-23T06:10:04;10.70;79.80
14585;DHT22;7379;51.506;11.876;2024-03-23T06:12:30;10.70;79.70
14585;DHT22;7379;51.506;11.876;2024-03-23T06:14:57;10.70;79.70
14585;DHT22;7379;51.506;11.876;2024-03-23T06:17:22;10.70;79.70
14585;DHT22;7379;51.506;11.876;2024-03-23T06:19:49;10.70;79.60
14585;DHT22;7379;51.506;11.876;2024-03-23T06:22:15;10.70;79.70
14585;DHT22;7379;51.506;11.876;2024-03-23T06:24:44;10.70;79.60
14585;DHT22;7379;51.506;11.876;2024-03-23T06:27:10;10.70;79.50
14585;DHT22;7379;51.506;11.876;2024-03-23T06:29:36;10.70;79.50
14585;DHT22;7379;51.506;11.876;2024-03-23T06:32:02;10.70;79.30
14585;DHT22;7379;51.506;11.876;2024-03-23T06:34:29;10.60;79.20
14585;DHT22;7379;51.506;11.876;2024-03-23T06:36:55;10.60;79.20
14585;DHT22;7379;51.506;11.876;2024-03-23T06:39:22;10.60;79.10
14585;DHT22;7379;51.506;11.876;2024-03-23T06:41:53;10.60;79.10
14585;DHT22;7379;51.506;11.876;2024-03-23T06:44:20;10.60;79.10
14585;DHT22;7379;51.506;11.876;2024-03-23T06:46:46;10.60;78.90
14585;DHT22;7379;51.506;11.876;2024-03-23T06:49:14;10.60;78.90
14585;DHT22;7379;51.506;11.876;2024-03-23T06:51:40;10.50;78.70
14585;DHT22;7379;51.506;11.876;2024-03-23T06:54:07;10.50;78.60
14585;DHT22;7379;51.506;11.876;2024-03-23T06:56:33;10.50;78.60
14585;DHT22;7379;51.506;11.876;2024-03-23T06:59:01;10.50;78.60
14585;DHT22;7379;51.506;11.876;2024-03-23T07:01:27;10.50;78.60
14585;DHT22;7379;51.506;11.876;2024-03-23T07:03:54;10.50;78.50
14585;DHT22;7379;51.506;11.876;2024-03-23T07:06:20;10.50;79.10
14585;DHT22;7379;51.506;11.876;2024-03-23T07:08:46;10.50;78.20
14585;DHT22;7379;51.506;11.876;2024-03-23T07:11:12;10.50;78.20
14585;DHT22;7379;51.506;11.876;2024-03-23T07:13:44;10.40;78.00
14585;DHT22;7379;51.506;11.876;2024-03-23T07:16:12;10.40;77.80
14585;DHT22;7379;51.506;11.876;2024-03-23T07:18:38;10.40;77.80
14585;DHT22;7379;51.506;11.876;2024-03-23T07:21:05;10.40;77.60
14585;DHT22;7379;51.506;11.876;2024-03-23T07:23:32;10.40;77.50
14585;DHT22;7379;51.506;11.876;2024-03-23T07:25:58;10.40;77.60
14585;DHT22;7379;51.506;11.876;2024-03-23T07:28:25;10.30;77.50
14585;DHT22;7379;51.506;11.876;2024-03-23T07:31:04;10.30;77.40
14585;DHT22;7379;51.506;11.876;2024-03-23T07:33:33;10.30;77.20
14585;DHT22;7379;51.506;11.876;2024-03-23T07:35:59;10.30;77.00
14585;DHT22;7379;51.506;11.876;2024-03-23T07:38:26;10.30;77.00
14585;DHT22;7379;51.506;11.876;2024-03-23T07:40:52;10.20;76.90
14585;DHT22;7379;51.506;11.876;2024-03-23T07:43:28;10.20;76.80
14585;DHT22;7379;51.506;11.876;2024-03-23T07:45:54;10.20;76.40
14585;DHT22;7379;51.506;11.876;2024-03-23T07:48:21;10.10;77.40
14585;DHT22;7379;51.506;11.876;2024-03-23T07:50:57;10.10;76.50
14585;DHT22;7379;51.506;11.876;2024-03-23T07:53:23;10.10;76.50
14585;DHT22;7379;51.506;11.876;2024-03-23T07:55:53;10.10;76.40
14585;DHT22;7379;51.506;11.876;2024-03-23T07:58:20;10.10;76.40
14585;DHT22;7379;51.506;11.876;2024-03-23T08:00:46;10.10;76.20
14585;DHT22;7379;51.506;11.876;2024-03-23T08:03:13;10.00;76.00
14585;DHT22;7379;51.506;11.876;2024-03-23T08:05:38;10.00;76.00
14585;DHT22;7379;51.506;11.876;2024-03-23T08:08:06;10.00;76.00
14585;DHT22;7379;51.506;11.876;2024-03-23T08:10:32;10.00;76.20
14585;DHT22;7379;51.506;11.876;2024-03-23T08:12:59;10.00;76.00
14585;DHT22;7379;51.506;11.876;2024-03-23T08:15:25;10.00;76.10
14585;DHT22;7379;51.506;11.876;2024-03-23T08:17:51;9.90;77.00
14585;DHT22;7379;51.506;11.876;2024-03-23T08:20:17;9.90;77.20
14585;DHT22;7379;51.506;11.876;2024-03-23T08:22:44;9.90;76.90
14585;DHT22;7379;51.506;11.876;2024-03-23T08:25:11;9.90;77.00
14585;DHT22;7379;51.506;11.876;2024-03-23T08:27:37;9.90;76.90
14585;DHT22;7379;51.506;11.876;2024-03-23T08:30:04;9.90;76.90
14585;DHT22;7379;51.506;11.876;2024-03-23T08:32:30;9.90;76.90
14585;DHT22;7379;51.506;11.876;2024-03-23T08:34:56;9.80;76.70
14585;DHT22;7379;51.506;11.876;2024-03-23T08:37:23;9.80;76.90
14585;DHT22;7379;51.506;11.876;2024-03-23T08:39:51;9.80;76.80
14585;DHT22;7379;51.506;11.876;2024-03-23T08:42:19;9.80;76.70
14585;DHT22;7379;51.506;11.876;2024-03-23T08:44:46;9.80;76.90
14585;DHT22;7379;51.506;11.876;2024-03-23T08:47:15;9.70;76.70
14585;DHT22;7379;51.506;11.876;2024-03-23T08:49:40;9.80;76.80
14585;DHT22;7379;51.506;11.876;2024-03-23T08:52:07;9.70;76.70
14585;DHT22;7379;51.506;11.876;2024-03-23T08:54:33;9.70;76.70
14585;DHT22;7379;51.506;11.876;2024-03-23T08:56:59;9.70;76.70
14585;DHT22;7379;51.506;11.876;2024-03-23T08:59:26;9.70;76.90
14585;DHT22;7379;51.506;11.876;2024-03-23T09:01:53;9.70;76.80
14585;DHT22;7379;51.506;11.876;2024-03-23T09:04:20;9.70;76.80
14585;DHT22;7379;51.506;11.876;2024-03-23T09:06:47;9.70;76.50
14585;DHT22;7379;51.506;11.876;2024-03-23T09:09:13;9.70;76.50
14585;DHT22;7379;51.506;11.876;2024-03-23T09:11:39;9.60;76.50
14585;DHT22;7379;51.506;11.876;2024-03-23T09:14:06;9.60;76.50
14585;DHT22;7379;51.506;11.876;2024-03-23T09:16:33;9.60;76.80
14585;DHT22;7379;51.506;11.876;2024-03-23T09:18:59;9.60;76.80
14585;DHT22;7379;51.506;11.876;2024-03-23T09:21:25;9.60;76.80
14585;DHT22;7379;51.506;11.876;2024-03-23T09:23:52;9.60;76.80
14585;DHT22;7379;51.506;11.876;2024-03-23T09:26:17;9.50;76.70
14585;DHT22;7379;51.506;11.876;2024-03-23T09:28:44;9.50;76.50
14585;DHT22;7379;51.506;11.876;2024-03-23T09:31:10;9.50;76.30
14585;DHT22;7379;51.506;11.876;2024-03-23T09:33:41;9.50;76.00
14585;DHT22;7379;51.506;11.876;2024-03-23T09:36:07;9.50;76.30
14585;DHT22;7379;51.506;11.876;2024-03-23T09:38:34;9.40;76.30
14585;DHT22;7379;51.506;11.876;2024-03-23T09:41:06;9.40;76.50
14585;DHT22;7379;51.506;11.876;2024-03-23T09:43:33;9.40;76.50
14585;DHT22;7379;51.506;11.876;2024-03-23T09:45:59;9.40;76.60
14585;DHT22;7379;51.506;11.876;2024-03-23T09:48:25;9.30;76.50
14585;DHT22;7379;51.506;11.876;2024-03-23T09:50:53;9.30;76.60
14585;DHT22;7379;51.506;11.876;2024-03-23T09:53:19;9.30;76.60
14585;DHT22;7379;51.506;11.876;2024-03-23T09:55:45;9.30;76.70
14585;DHT22;7379;51.506;11.876;2024-03-23T09:58:13;9.30;76.70
14585;DHT22;7379;51.506;11.876;2024-03-23T10:00:39;9.20;77.40
14585;DHT22;7379;51.506;11.876;2024-03-23T10:03:05;9.20;76.70
14585;DHT22;7379;51.506;11.876;2024-03-23T10:05:32;9.20;76.70
14585;DHT22;7379;51.506;11.876;2024-03-23T10:08:17;9.20;76.90
14585;DHT22;7379;51.506;11.876;2024-03-23T10:10:44;9.20;76.90
14585;DHT22;7379;51.506;11.876;2024-03-23T10:13:12;9.20;76.90
14585;DHT22;7379;51.506;11.876;2024-03-23T10:15:55;9.20;76.90
14585;DHT22;7379;51.506;11.876;2024-03-23T10:18:22;9.10;76.90
14585;DHT22;7379;51.506;11.876;2024-03-23T10:20:51;9.10;76.90
14585;DHT22;7379;51.506;11.876;2024-03-23T10:23:19;9.10;77.00
14585;DHT22;7379;51.506;11.876;2024-03-23T10:25:44;9.10;77.00
14585;DHT22;7379;51.506;11.876;2024-03-23T10:28:12;9.10;76.90
14585;DHT22;7379;51.506;11.876;2024-03-23T10:30:37;9.10;76.70
14585;DHT22;7379;51.506;11.876;2024-03-23T10:33:08;9.10;76.70
14585;DHT22;7379;51.506;11.876;2024-03-23T10:35:34;9.10;76.60
14585;DHT22;7379;51.506;11.876;2024-03-23T10:38:02;9.10;76.50
14585;DHT22;7379;51.506;11.876;2024-03-23T10:40:31;9.10;76.50
14585;DHT22;7379;51.506;11.876;2024-03-23T10:42:58;9.10;76.50
14585;DHT22;7379;51.506;11.876;2024-03-23T10:45:24;9.10;76.40
14585;DHT22;7379;51.506;11.876;2024-03-23T10:47:51;9.00;76.40
14585;DHT22;7379;51.506;11.876;2024-03-23T10:50:17;9.00;76.30
14585;DHT22;7379;51.506;11.876;2024-03-23T10:52:47;9.00;76.40
14585;DHT22;7379;51.506;11.876;2024-03-23T10:55:14;9.00;76.30
14585;DHT22;7379;51.506;11.876;2024-03-23T10:57:48;9.00;76.50
14585;DHT22;7379;51.506;11.876;2024-03-23T11:00:16;9.00;76.50
14585;DHT22;7379;51.506;11.876;2024-03-23T11:02:42;9.00;76.60
14585;DHT22;7379;51.506;11.876;2024-03-23T11:05:29;8.90;76.60
14585;DHT22;7379;51.506;11.876;2024-03-23T11:07:56;8.90;77.00
14585;DHT22;7379;51.506;11.876;2024-03-23T11:10:26;8.90;76.70
14585;DHT22;7379;51.506;11.876;2024-03-23T11:12:56;8.90;76.80
14585;DHT22;7379;51.506;11.876;2024-03-23T11:15:21;8.90;76.80
14585;DHT22;7379;51.506;11.876;2024-03-23T11:18:03;8.90;76.80
14585;DHT22;7379;51.506;11.876;2024-03-23T11:20:32;8.90;76.80
14585;DHT22;7379;51.506;11.876;2024-03-23T11:22:59;8.90;76.80
14585;DHT22;7379;51.506;11.876;2024-03-23T11:25:26;8.90;76.70
14585;DHT22;7379;51.506;11.876;2024-03-23T11:27:54;8.90;76.80
14585;DHT22;7379;51.506;11.876;2024-03-23T11:30:22;9.00;76.80
14585;DHT22;7379;51.506;11.876;2024-03-23T11:32:50;9.00;76.90
14585;DHT22;7379;51.506;11.876;2024-03-23T11:35:34;9.00;76.90
14585;DHT22;7379;51.506;11.876;2024-03-23T11:38:09;9.00;76.90
14585;DHT22;7379;51.506;11.876;2024-03-23T11:40:37;9.00;76.70
14585;DHT22;7379;51.506;11.876;2024-03-23T11:43:05;9.00;76.50
14585;DHT22;7379;51.506;11.876;2024-03-23T11:45:35;9.00;76.30
14585;DHT22;7379;51.506;11.876;2024-03-23T11:48:07;9.00;76.40
14585;DHT22;7379;51.506;11.876;2024-03-23T11:50:33;9.00;76.20
14585;DHT22;7379;51.506;11.876;2024-03-23T11:53:07;9.00;76.30
14585;DHT22;7379;51.506;11.876;2024-03-23T11:55:42;9.00;76.40
14585;DHT22;7379;51.506;11.876;2024-03-23T11:58:09;9.00;76.50
14585;DHT22;7379;51.506;11.876;2024-03-23T12:00:36;9.00;76.50
14585;DHT22;7379;51.506;11.876;2024-03-23T12:03:04;9.00;76.40
14585;DHT22;7379;51.506;11.876;2024-03-23T12:05:30;9.00;76.40
14585;DHT22;7379;51.506;11.876;2024-03-23T12:08:15;9.00;76.50
14585;DHT22;7379;51.506;11.876;2024-03-23T12:10:40;9.00;76.50
14585;DHT22;7379;51.506;11.876;2024-03-23T12:13:07;9.00;76.50
14585;DHT22;7379;51.506;11.876;2024-03-23T12:15:33;9.00;76.10
14585;DHT22;7379;51.506;11.876;2024-03-23T12:18:08;9.10;76.70
14585;DHT22;7379;51.506;11.876;2024-03-23T12:20:33;9.10;75.90
14585;DHT22;7379;51.506;11.876;2024-03-23T12:23:10;9.20;75.80
14585;DHT22;7379;51.506;11.876;2024-03-23T12:25:37;9.30;75.70
14585;DHT22;7379;51.506;11.876;2024-03-23T12:28:04;9.40;75.30
14585;DHT22;7379;51.506;11.876;2024-03-23T12:30:32;9.50;74.80
14585;DHT22;7379;51.506;11.876;2024-03-23T12:32:59;9.60;74.30
14585;DHT22;7379;51.506;11.876;2024-03-23T12:35:26;9.70;73.00
14585;DHT22;7379;51.506;11.876;2024-03-23T12:37:52;9.80;72.20
14585;DHT22;7379;51.506;11.876;2024-03-23T12:40:18;9.90;71.90
14585;DHT22;7379;51.506;11.876;2024-03-23T12:42:44;10.10;70.40
14585;DHT22;7379;51.506;11.876;2024-03-23T12:45:10;10.10;70.60
14585;DHT22;7379;51.506;11.876;2024-03-23T12:47:37;10.20;70.00
14585;DHT22;7379;51.506;11.876;2024-03-23T12:50:03;10.30;69.20
14585;DHT22;7379;51.506;11.876;2024-03-23T12:52:32;10.30;69.40
14585;DHT22;7379;51.506;11.876;2024-03-23T12:54:58;10.40;68.90
14585;DHT22;7379;51.506;11.876;2024-03-23T12:57:25;10.60;68.60
14585;DHT22;7379;51.506;11.876;2024-03-23T12:59:51;10.60;68.70
14585;DHT22;7379;51.506;11.876;2024-03-23T13:02:19;10.70;69.10
14585;DHT22;7379;51.506;11.876;2024-03-23T13:04:45;10.70;68.40
14585;DHT22;7379;51.506;11.876;2024-03-23T13:07:12;10.90;68.40
14585;DHT22;7379;51.506;11.876;2024-03-23T13:09:39;10.90;67.30
14585;DHT22;7379;51.506;11.876;2024-03-23T13:12:07;10.80;66.90
14585;DHT22;7379;51.506;11.876;2024-03-23T13:14:33;10.60;67.30
14585;DHT22;7379;51.506;11.876;2024-03-23T13:17:00;10.70;67.50
14585;DHT22;7379;51.506;11.876;2024-03-23T13:19:25;10.90;67.30
14585;DHT22;7379;51.506;11.876;2024-03-23T13:21:55;11.10;67.10
14585;DHT22;7379;51.506;11.876;2024-03-23T13:24:22;11.30;65.70
14585;DHT22;7379;51.506;11.876;2024-03-23T13:26:51;11.20;65.50
14585;DHT22;7379;51.506;11.876;2024-03-23T13:29:17;11.20;65.50
14585;DHT22;7379;51.506;11.876;2024-03-23T13:31:44;11.20;65.70
14585;DHT22;7379;51.506;11.876;2024-03-23T13:34:09;11.20;66.10
14585;DHT22;7379;51.506;11.876;2024-03-23T13:36:36;11.00;65.40
14585;DHT22;7379;51.506;11.876;2024-03-23T13:39:02;10.80;65.60
14585;DHT22;7379;51.506;11.876;2024-03-23T13:41:31;10.50;66.40
14585;DHT22;7379;51.506;11.876;2024-03-23T13:43:58;10.40;67.60
14585;DHT22;7379;51.506;11.876;2024-03-23T13:46:25;10.30;68.20
14585;DHT22;7379;51.506;11.876;2024-03-23T13:48:51;10.10;68.50
14585;DHT22;7379;51.506;11.876;2024-03-23T13:51:23;10.00;68.80
14585;DHT22;7379;51.506;11.876;2024-03-23T13:53:49;9.90;70.70
14585;DHT22;7379;51.506;11.876;2024-03-23T13:56:16;9.80;71.00
14585;DHT22;7379;51.506;11.876;2024-03-23T13:58:42;9.80;71.30
14585;DHT22;7379;51.506;11.876;2024-03-23T14:01:13;9.70;71.30
14585;DHT22;7379;51.506;11.876;2024-03-23T14:03:39;9.60;71.50
14585;DHT22;7379;51.506;11.876;2024-03-23T14:06:07;9.60;71.90
14585;DHT22;7379;51.506;11.876;2024-03-23T14:08:33;9.50;72.30
14585;DHT22;7379;51.506;11.876;2024-03-23T14:11:02;9.50;72.60
14585;DHT22;7379;51.506;11.876;2024-03-23T14:13:29;9.40;72.90
14585;DHT22;7379;51.506;11.876;2024-03-23T14:15:56;9.40;73.20
14585;DHT22;7379;51.506;11.876;2024-03-23T14:18:23;9.40;73.40
14585;DHT22;7379;51.506;11.876;2024-03-23T14:20:51;9.30;73.40
14585;DHT22;7379;51.506;11.876;2024-03-23T14:23:17;9.30;73.60
14585;DHT22;7379;51.506;11.876;2024-03-23T14:25:44;9.30;73.80
14585;DHT22;7379;51.506;11.876;2024-03-23T14:28:10;9.30;74.00
14585;DHT22;7379;51.506;11.876;2024-03-23T14:30:41;9.30;74.10
14585;DHT22;7379;51.506;11.876;2024-03-23T14:33:07;9.20;74.20
14585;DHT22;7379;51.506;11.876;2024-03-23T14:35:35;9.20;74.20
14585;DHT22;7379;51.506;11.876;2024-03-23T14:38:00;9.20;74.30
14585;DHT22;7379;51.506;11.876;2024-03-23T14:40:27;9.20;74.30
14585;DHT22;7379;51.506;11.876;2024-03-23T14:42:54;9.20;74.10
14585;DHT22;7379;51.506;11.876;2024-03-23T14:45:20;9.30;74.20
14585;DHT22;7379;51.506;11.876;2024-03-23T14:47:46;9.30;73.60
14585;DHT22;7379;51.506;11.876;2024-03-23T14:50:13;9.40;73.50
14585;DHT22;7379;51.506;11.876;2024-03-23T14:52:43;9.50;73.20
14585;DHT22;7379;51.506;11.876;2024-03-23T14:55:10;9.60;73.40
14585;DHT22;7379;51.506;11.876;2024-03-23T14:57:36;9.80;72.60
14585;DHT22;7379;51.506;11.876;2024-03-23T15:00:06;9.90;72.00
14585;DHT22;7379;51.506;11.876;2024-03-23T15:02:31;10.30;70.20
14585;DHT22;7379;51.506;11.876;2024-03-23T15:04:58;10.40;69.70
14585;DHT22;7379;51.506;11.876;2024-03-23T15:07:24;10.40;68.90
14585;DHT22;7379;51.506;11.876;2024-03-23T15:09:52;10.30;69.20
14585;DHT22;7379;51.506;11.876;2024-03-23T15:12:19;10.10;69.80
14585;DHT22;7379;51.506;11.876;2024-03-23T15:14:47;10.00;70.40
14585;DHT22;7379;51.506;11.876;2024-03-23T15:17:13;9.90;71.90
14585;DHT22;7379;51.506;11.876;2024-03-23T15:19:39;10.10;70.50
14585;DHT22;7379;51.506;11.876;2024-03-23T15:22:07;10.50;69.30
14585;DHT22;7379;51.506;11.876;2024-03-23T15:24:34;10.90;67.40
14585;DHT22;7379;51.506;11.876;2024-03-23T15:27:02;11.30;66.50
14585;DHT22;7379;51.506;11.876;2024-03-23T15:29:29;11.50;65.90
14585;DHT22;7379;51.506;11.876;2024-03-23T15:31:55;11.70;65.00
14585;DHT22;7379;51.506;11.876;2024-03-23T15:34:22;11.80;64.60
14585;DHT22;7379;51.506;11.876;2024-03-23T15:36:48;11.80;64.30
14585;DHT22;7379;51.506;11.876;2024-03-23T15:39:16;11.80;63.90
14585;DHT22;7379;51.506;11.876;2024-03-23T15:41:44;11.90;63.90
14585;DHT22;7379;51.506;11.876;2024-03-23T15:44:12;12.00;63.40
14585;DHT22;7379;51.506;11.876;2024-03-23T15:46:38;12.20;63.60
14585;DHT22;7379;51.506;11.876;2024-03-23T15:49:05;12.30;62.80
14585;DHT22;7379;51.506;11.876;2024-03-23T15:51:31;12.20;62.40
14585;DHT22;7379;51.506;11.876;2024-03-23T15:54:00;11.90;63.40
14585;DHT22;7379;51.506;11.876;2024-03-23T15:56:26;11.50;64.30
14585;DHT22;7379;51.506;11.876;2024-03-23T15:58:52;11.20;65.20
14585;DHT22;7379;51.506;11.876;2024-03-23T16:01:19;10.90;66.40
14585;DHT22;7379;51.506;11.876;2024-03-23T16:03:47;10.70;67.30
14585;DHT22;7379;51.506;11.876;2024-03-23T16:06:13;10.50;68.10
14585;DHT22;7379;51.506;11.876;2024-03-23T16:08:39;10.30;69.10
14585;DHT22;7379;51.506;11.876;2024-03-23T16:11:06;10.20;69.30
14585;DHT22;7379;51.506;11.876;2024-03-23T16:13:34;10.10;69.70
14585;DHT22;7379;51.506;11.876;2024-03-23T16:16:01;10.00;70.00
14585;DHT22;7379;51.506;11.876;2024-03-23T16:18:30;9.90;71.40
14585;DHT22;7379;51.506;11.876;2024-03-23T16:20:56;9.90;71.70
14585;DHT22;7379;51.506;11.876;2024-03-23T16:23:24;9.80;71.80
14585;DHT22;7379;51.506;11.876;2024-03-23T16:25:50;9.80;72.00
14585;DHT22;7379;51.506;11.876;2024-03-23T16:28:25;9.70;72.10
14585;DHT22;7379;51.506;11.876;2024-03-23T16:30:54;9.70;72.20